• Join FlightAware (Why Join?)
  • Login
  • US Flag 
08:34AM EST


 

Airport Tracker/Info


-or-


 

Live Flight TrackerFlight Track Log ✈ USC105 ✈ 26-Jun-2013 ✈ KYIP - KLCK

Flight Track Log - Related Links

Times and Time Zones

All times are in EDT time to prevent confusion due to time zone crossing. See the USC105 flight status page for this flight to view local times or setup timezone preferences in your user account.

Time Position Orientation Groundspeed Altitude Reporting Facility
EDT Latitude Longitude Course Direction KTS MPH feet Rate Location/Type
06:58AM 42.2064 -83.5772 229° Southwest 129 148 2,100  Level Cleveland Center
06:59AM 42.1686 -83.5950 229° Southwest 139 160 3,000 420 Climbing Cleveland Center
07:00AM 42.1242 -83.6125 196° South 167 192 3,000  Level Cleveland Center
07:01AM 42.0828 -83.5992 167° South 185 213 3,000 60 Level Cleveland Center
07:02AM 42.0253 -83.5714 160° South 171 197 3,200 120 Climbing Cleveland Center
07:04AM 41.8761 -83.5266 167° South  Level Estimated
07:11AM 41.2593 -83.4833 204° Southwest  Level FlightAware Approximate
07:12AM 41.1717 -83.5340 204° Southwest  Level FlightAware Approximate
07:13AM 41.0841 -83.5846 204° Southwest  Level FlightAware Approximate
07:14AM 40.9965 -83.6350 203° Southwest  Level FlightAware Approximate
07:15AM 40.9089 -83.6854 203° Southwest  Level FlightAware Approximate
07:16AM 40.8341 -83.6385 137° Southeast  Level FlightAware Approximate
07:17AM 40.7540 -83.5716 145° Southeast  Level FlightAware Approximate
07:18AM 40.6758 -83.4993 145° Southeast  Level FlightAware Approximate
07:19AM 40.5975 -83.4271 145° Southeast  Level FlightAware Approximate
07:20AM 40.5165 -83.3610 153° Southeast  Level FlightAware Approximate
07:21AM 40.4362 -83.2932 146° Southeast  Level FlightAware Approximate
07:22AM 40.3571 -83.2230 146° Southeast  Level FlightAware Approximate
07:23AM 40.2688 -83.1760 159° South  Level FlightAware Approximate
07:24AM 40.1796 -83.1312 156° South  Level FlightAware Approximate
07:25AM 40.0921 -83.0812 156° South  Level FlightAware Approximate
07:26AM 40.0046 -83.0311 156° South  Level FlightAware Approximate
07:27AM 39.9171 -82.9811 156° South  Level FlightAware Approximate
07:28AM 39.8295 -82.9314 159° South  Level FlightAware Approximate
07:29AM 39.8138 -82.9278 159° South  Level Estimated
07:30AM 39.8138 -82.9278 159° South  Level Estimated
07:31AM 39.8138 -82.9278 159° South  Level Estimated
07:31AM 40.5161 -83.1075 159° South 202 232 7,000  Level Indianapolis Center
07:32AM 39.8138 -82.9278 159° South  Level Estimated
07:32AM 40.4617 -83.0942 169° South 200 230 7,000  Level Indianapolis Center
07:33AM 39.8138 -82.9278 159° South  Level Estimated
07:33AM 40.4067 -83.0806 169° South 199 229 7,000  Level Indianapolis Center
07:34AM 39.8138 -82.9278 159° South  Level Estimated
07:34AM 40.3514 -83.0653 168° South 202 232 7,000  Level Indianapolis Center
07:35AM 39.8138 -82.9278 159° South  Level Estimated
07:35AM 40.2944 -83.0200 149° Southeast 208 239 6,600  Level Indianapolis Center
07:36AM 39.8138 -82.9278 159° South  Level Estimated
07:36AM 40.2492 -82.9744 142° Southeast 208 239 6,200  Level Indianapolis Center
07:37AM 40.2003 -82.9247 142° Southeast 205 236 5,600 -600 Descending Indianapolis Center
07:38AM 40.1611 -82.8847 142° Southeast 208 239 5,100 -540 Descending Indianapolis Center
07:39AM 40.1086 -82.8569 158° South 193 222 4,600 -480 Descending Indianapolis Center
07:40AM 40.0672 -82.8494 172° South 172 198 4,200 -300 Descending Indianapolis Center
07:41AM 40.0128 -82.8417 174° South 181 208 4,000 -120 Descending Indianapolis Center
07:42AM 39.9675 -82.8342 173° South 175 201 4,000  Level Indianapolis Center
07:43AM 39.9253 -82.8314 177° South 168 193 4,000 -480 Level Indianapolis Center
07:44AM 39.8756 -82.8400 188° South 167 192 3,100 -1,260 Descending Indianapolis Center
07:45AM 39.8403 -82.8944 230° Southwest 177 204 1,500 -1,620 Descending Indianapolis Center
07:47AM 39.8000 -82.9167 184° South  Level FlightAware Approximate